sensor_id;sensor_type;location;lat;lon;timestamp;temperature;humidity
13721;DHT22;6932;51.438;5.470;2024-03-06T00:02:05;12.70;99.90
13721;DHT22;6932;51.438;5.470;2024-03-06T00:04:31;12.60;99.90
13721;DHT22;6932;51.438;5.470;2024-03-06T00:06:57;12.60;99.90
13721;DHT22;6932;51.438;5.470;2024-03-06T00:09:24;12.60;99.90
13721;DHT22;6932;51.438;5.470;2024-03-06T00:11:52;12.60;99.90
13721;DHT22;6932;51.438;5.470;2024-03-06T00:14:19;12.60;99.90
13721;DHT22;6932;51.438;5.470;2024-03-06T00:16:47;12.60;99.90
13721;DHT22;6932;51.438;5.470;2024-03-06T00:19:18;12.60;99.90
13721;DHT22;6932;51.438;5.470;2024-03-06T00:21:45;12.60;99.90
13721;DHT22;6932;51.438;5.470;2024-03-06T00:24:14;12.50;99.90
13721;DHT22;6932;51.438;5.470;2024-03-06T00:26:44;12.50;99.90
13721;DHT22;6932;51.438;5.470;2024-03-06T00:29:10;12.50;99.90
13721;DHT22;6932;51.438;5.470;2024-03-06T00:31:38;12.50;99.90
13721;DHT22;6932;51.438;5.470;2024-03-06T00:34:09;12.50;99.90
13721;DHT22;6932;51.438;5.470;2024-03-06T00:36:35;12.50;99.90
13721;DHT22;6932;51.438;5.470;2024-03-06T00:39:01;12.40;99.90
13721;DHT22;6932;51.438;5.470;2024-03-06T00:41:30;12.40;99.90
13721;DHT22;6932;51.438;5.470;2024-03-06T00:43:56;12.40;99.90
13721;DHT22;6932;51.438;5.470;2024-03-06T00:46:22;12.30;99.90
13721;DHT22;6932;51.438;5.470;2024-03-06T00:48:48;12.30;99.90
13721;DHT22;6932;51.438;5.470;2024-03-06T00:51:14;12.30;99.90
13721;DHT22;6932;51.438;5.470;2024-03-06T00:53:40;12.30;99.90
13721;DHT22;6932;51.438;5.470;2024-03-06T00:56:06;12.20;99.90
13721;DHT22;6932;51.438;5.470;2024-03-06T00:58:32;12.20;99.90
13721;DHT22;6932;51.438;5.470;2024-03-06T01:00:58;12.20;99.90
13721;DHT22;6932;51.438;5.470;2024-03-06T01:03:24;12.20;99.90
13721;DHT22;6932;51.438;5.470;2024-03-06T01:05:50;12.20;99.90
13721;DHT22;6932;51.438;5.470;2024-03-06T01:08:18;12.10;99.90
13721;DHT22;6932;51.438;5.470;2024-03-06T01:10:45;12.10;99.90
13721;DHT22;6932;51.438;5.470;2024-03-06T01:13:11;12.10;99.90
13721;DHT22;6932;51.438;5.470;2024-03-06T01:15:37;12.10;99.90
13721;DHT22;6932;51.438;5.470;2024-03-06T01:18:03;12.10;99.90
13721;DHT22;6932;51.438;5.470;2024-03-06T01:20:29;12.10;99.90
13721;DHT22;6932;51.438;5.470;2024-03-06T01:22:55;12.00;99.90
13721;DHT22;6932;51.438;5.470;2024-03-06T01:25:21;12.00;99.90
13721;DHT22;6932;51.438;5.470;2024-03-06T01:27:50;12.00;99.90
13721;DHT22;6932;51.438;5.470;2024-03-06T01:30:15;12.00;99.90
13721;DHT22;6932;51.438;5.470;2024-03-06T01:32:41;12.00;99.90
13721;DHT22;6932;51.438;5.470;2024-03-06T01:35:07;12.00;99.90
13721;DHT22;6932;51.438;5.470;2024-03-06T01:37:33;12.00;99.90
13721;DHT22;6932;51.438;5.470;2024-03-06T01:39:58;12.00;99.90
13721;DHT22;6932;51.438;5.470;2024-03-06T01:42:24;11.90;99.90
13721;DHT22;6932;51.438;5.470;2024-03-06T01:44:50;12.00;99.90
13721;DHT22;6932;51.438;5.470;2024-03-06T01:47:16;11.90;99.90
13721;DHT22;6932;51.438;5.470;2024-03-06T01:49:42;11.90;99.90
13721;DHT22;6932;51.438;5.470;2024-03-06T01:52:11;11.90;99.90
13721;DHT22;6932;51.438;5.470;2024-03-06T01:54:39;11.90;99.90
13721;DHT22;6932;51.438;5.470;2024-03-06T01:57:06;11.90;99.90
13721;DHT22;6932;51.438;5.470;2024-03-06T01:59:33;11.90;99.90
13721;DHT22;6932;51.438;5.470;2024-03-06T02:02:00;11.90;99.90
13721;DHT22;6932;51.438;5.470;2024-03-06T02:04:29;11.90;99.90
13721;DHT22;6932;51.438;5.470;2024-03-06T02:06:56;11.90;99.90
13721;DHT22;6932;51.438;5.470;2024-03-06T02:09:23;11.90;99.90
13721;DHT22;6932;51.438;5.470;2024-03-06T02:11:49;11.90;99.90
13721;DHT22;6932;51.438;5.470;2024-03-06T02:14:16;11.90;99.90
13721;DHT22;6932;51.438;5.470;2024-03-06T02:16:42;11.90;99.90
13721;DHT22;6932;51.438;5.470;2024-03-06T02:19:08;11.80;99.90
13721;DHT22;6932;51.438;5.470;2024-03-06T02:21:34;11.80;99.90
13721;DHT22;6932;51.438;5.470;2024-03-06T02:24:00;11.80;99.90
13721;DHT22;6932;51.438;5.470;2024-03-06T02:26:26;11.80;99.90
13721;DHT22;6932;51.438;5.470;2024-03-06T02:28:53;11.80;99.90
13721;DHT22;6932;51.438;5.470;2024-03-06T02:31:20;11.70;99.90
13721;DHT22;6932;51.438;5.470;2024-03-06T02:33:47;11.70;99.90
13721;DHT22;6932;51.438;5.470;2024-03-06T02:36:15;11.70;99.90
13721;DHT22;6932;51.438;5.470;2024-03-06T02:38:44;11.70;99.90
13721;DHT22;6932;51.438;5.470;2024-03-06T02:41:11;11.70;99.90
13721;DHT22;6932;51.438;5.470;2024-03-06T02:43:39;11.70;99.90
13721;DHT22;6932;51.438;5.470;2024-03-06T02:46:05;11.70;99.90
13721;DHT22;6932;51.438;5.470;2024-03-06T02:48:31;11.60;99.90
13721;DHT22;6932;51.438;5.470;2024-03-06T02:50:57;11.60;99.90
13721;DHT22;6932;51.438;5.470;2024-03-06T02:53:24;11.50;99.90
13721;DHT22;6932;51.438;5.470;2024-03-06T02:55:50;11.50;99.90
13721;DHT22;6932;51.438;5.470;2024-03-06T02:58:16;11.50;99.90
13721;DHT22;6932;51.438;5.470;2024-03-06T03:00:43;11.50;99.90
13721;DHT22;6932;51.438;5.470;2024-03-06T03:03:10;11.50;99.90
13721;DHT22;6932;51.438;5.470;2024-03-06T03:05:39;11.50;99.90
13721;DHT22;6932;51.438;5.470;2024-03-06T03:08:09;11.50;99.90
13721;DHT22;6932;51.438;5.470;2024-03-06T03:10:34;11.50;99.90
13721;DHT22;6932;51.438;5.470;2024-03-06T03:13:00;11.40;99.90
13721;DHT22;6932;51.438;5.470;2024-03-06T03:15:26;11.40;99.90
13721;DHT22;6932;51.438;5.470;2024-03-06T03:17:52;11.50;99.90
13721;DHT22;6932;51.438;5.470;2024-03-06T03:20:18;11.40;99.90
13721;DHT22;6932;51.438;5.470;2024-03-06T03:22:44;11.40;99.90
13721;DHT22;6932;51.438;5.470;2024-03-06T03:25:10;11.40;99.90
13721;DHT22;6932;51.438;5.470;2024-03-06T03:27:38;11.40;99.90
13721;DHT22;6932;51.438;5.470;2024-03-06T03:30:09;11.40;99.90
13721;DHT22;6932;51.438;5.470;2024-03-06T03:32:36;11.40;99.90
13721;DHT22;6932;51.438;5.470;2024-03-06T03:35:06;11.50;99.90
13721;DHT22;6932;51.438;5.470;2024-03-06T03:37:32;11.50;99.90
13721;DHT22;6932;51.438;5.470;2024-03-06T03:39:59;11.50;99.90
13721;DHT22;6932;51.438;5.470;2024-03-06T03:42:24;11.40;99.90
13721;DHT22;6932;51.438;5.470;2024-03-06T03:44:50;11.50;99.90
13721;DHT22;6932;51.438;5.470;2024-03-06T03:47:16;11.50;99.90
13721;DHT22;6932;51.438;5.470;2024-03-06T03:49:42;11.40;99.90
13721;DHT22;6932;51.438;5.470;2024-03-06T03:52:08;11.40;99.90
13721;DHT22;6932;51.438;5.470;2024-03-06T03:54:34;11.50;99.90
13721;DHT22;6932;51.438;5.470;2024-03-06T03:57:00;11.40;99.90
13721;DHT22;6932;51.438;5.470;2024-03-06T03:59:26;11.40;99.90
13721;DHT22;6932;51.438;5.470;2024-03-06T04:01:52;11.40;99.90
13721;DHT22;6932;51.438;5.470;2024-03-06T04:04:18;11.40;99.90
13721;DHT22;6932;51.438;5.470;2024-03-06T04:06:44;11.40;99.90
13721;DHT22;6932;51.438;5.470;2024-03-06T04:09:10;11.40;99.90
13721;DHT22;6932;51.438;5.470;2024-03-06T04:11:37;11.40;99.90
13721;DHT22;6932;51.438;5.470;2024-03-06T04:14:04;11.40;99.90
13721;DHT22;6932;51.438;5.470;2024-03-06T04:16:32;11.40;99.90
13721;DHT22;6932;51.438;5.470;2024-03-06T04:18:58;11.40;99.90
13721;DHT22;6932;51.438;5.470;2024-03-06T04:21:24;11.40;99.90
13721;DHT22;6932;51.438;5.470;2024-03-06T04:23:49;11.40;99.90
13721;DHT22;6932;51.438;5.470;2024-03-06T04:26:15;11.40;99.90
13721;DHT22;6932;51.438;5.470;2024-03-06T04:28:43;11.40;99.90
13721;DHT22;6932;51.438;5.470;2024-03-06T04:31:09;11.30;99.90
13721;DHT22;6932;51.438;5.470;2024-03-06T04:33:36;11.30;99.90
13721;DHT22;6932;51.438;5.470;2024-03-06T04:36:03;11.30;99.90
13721;DHT22;6932;51.438;5.470;2024-03-06T04:38:32;11.30;99.90
13721;DHT22;6932;51.438;5.470;2024-03-06T04:40:58;11.30;99.90
13721;DHT22;6932;51.438;5.470;2024-03-06T04:43:24;11.20;99.90
13721;DHT22;6932;51.438;5.470;2024-03-06T04:45:49;11.20;99.90
13721;DHT22;6932;51.438;5.470;2024-03-06T04:48:15;11.20;99.90
13721;DHT22;6932;51.438;5.470;2024-03-06T04:50:41;11.20;99.90
13721;DHT22;6932;51.438;5.470;2024-03-06T04:53:07;11.10;99.90
13721;DHT22;6932;51.438;5.470;2024-03-06T04:55:32;11.10;99.90
13721;DHT22;6932;51.438;5.470;2024-03-06T04:57:58;11.10;99.90
13721;DHT22;6932;51.438;5.470;2024-03-06T05:00:24;11.10;99.90
13721;DHT22;6932;51.438;5.470;2024-03-06T05:02:50;11.00;99.90
13721;DHT22;6932;51.438;5.470;2024-03-06T05:05:15;11.10;99.90
13721;DHT22;6932;51.438;5.470;2024-03-06T05:07:41;11.00;99.90
13721;DHT22;6932;51.438;5.470;2024-03-06T05:10:07;11.00;99.90
13721;DHT22;6932;51.438;5.470;2024-03-06T05:12:34;11.00;99.90
13721;DHT22;6932;51.438;5.470;2024-03-06T05:15:00;10.90;99.90
13721;DHT22;6932;51.438;5.470;2024-03-06T05:17:26;11.00;99.90
13721;DHT22;6932;51.438;5.470;2024-03-06T05:19:51;10.90;99.90
13721;DHT22;6932;51.438;5.470;2024-03-06T05:22:17;10.90;99.90
13721;DHT22;6932;51.438;5.470;2024-03-06T05:24:44;10.90;99.90
13721;DHT22;6932;51.438;5.470;2024-03-06T05:27:10;10.90;99.90
13721;DHT22;6932;51.438;5.470;2024-03-06T05:29:42;10.90;99.90
13721;DHT22;6932;51.438;5.470;2024-03-06T05:32:09;10.80;99.90
13721;DHT22;6932;51.438;5.470;2024-03-06T05:34:35;10.80;99.90
13721;DHT22;6932;51.438;5.470;2024-03-06T05:37:01;10.80;99.90
13721;DHT22;6932;51.438;5.470;2024-03-06T05:39:32;10.80;99.90
13721;DHT22;6932;51.438;5.470;2024-03-06T05:42:06;10.80;99.90
13721;DHT22;6932;51.438;5.470;2024-03-06T05:44:32;10.80;99.90
13721;DHT22;6932;51.438;5.470;2024-03-06T05:46:58;10.80;99.90
13721;DHT22;6932;51.438;5.470;2024-03-06T05:49:26;10.70;99.90
13721;DHT22;6932;51.438;5.470;2024-03-06T05:51:52;10.70;99.90
13721;DHT22;6932;51.438;5.470;2024-03-06T05:54:20;10.70;99.90
13721;DHT22;6932;51.438;5.470;2024-03-06T05:56:50;10.80;99.90
13721;DHT22;6932;51.438;5.470;2024-03-06T05:59:20;10.70;99.90
13721;DHT22;6932;51.438;5.470;2024-03-06T06:01:46;10.70;99.90
13721;DHT22;6932;51.438;5.470;2024-03-06T06:04:13;10.60;99.90
13721;DHT22;6932;51.438;5.470;2024-03-06T06:06:39;10.60;99.90
13721;DHT22;6932;51.438;5.470;2024-03-06T06:09:05;10.60;99.90
13721;DHT22;6932;51.438;5.470;2024-03-06T06:11:33;10.60;99.90
13721;DHT22;6932;51.438;5.470;2024-03-06T06:13:59;10.70;99.90
13721;DHT22;6932;51.438;5.470;2024-03-06T06:16:25;10.60;99.90
13721;DHT22;6932;51.438;5.470;2024-03-06T06:18:51;10.60;99.90
13721;DHT22;6932;51.438;5.470;2024-03-06T06:21:17;10.60;99.90
13721;DHT22;6932;51.438;5.470;2024-03-06T06:23:44;10.60;99.90
13721;DHT22;6932;51.438;5.470;2024-03-06T06:26:09;10.60;99.90
13721;DHT22;6932;51.438;5.470;2024-03-06T06:28:40;10.60;99.90
13721;DHT22;6932;51.438;5.470;2024-03-06T06:31:07;10.50;99.90
13721;DHT22;6932;51.438;5.470;2024-03-06T06:33:33;10.60;99.90
13721;DHT22;6932;51.438;5.470;2024-03-06T06:35:59;10.60;99.90
13721;DHT22;6932;51.438;5.470;2024-03-06T06:38:24;10.60;99.90
13721;DHT22;6932;51.438;5.470;2024-03-06T06:40:50;10.50;99.90
13721;DHT22;6932;51.438;5.470;2024-03-06T06:43:16;10.60;99.90
13721;DHT22;6932;51.438;5.470;2024-03-06T06:45:42;10.50;99.90
13721;DHT22;6932;51.438;5.470;2024-03-06T06:48:07;10.60;99.90
13721;DHT22;6932;51.438;5.470;2024-03-06T06:50:35;10.50;99.90
13721;DHT22;6932;51.438;5.470;2024-03-06T06:53:01;10.60;99.90
13721;DHT22;6932;51.438;5.470;2024-03-06T06:55:27;10.60;99.90
13721;DHT22;6932;51.438;5.470;2024-03-06T06:57:53;10.70;99.90
13721;DHT22;6932;51.438;5.470;2024-03-06T07:00:19;10.80;99.90
13721;DHT22;6932;51.438;5.470;2024-03-06T07:02:47;10.80;99.90
13721;DHT22;6932;51.438;5.470;2024-03-06T07:05:13;10.90;99.90
13721;DHT22;6932;51.438;5.470;2024-03-06T07:07:39;11.00;99.90
13721;DHT22;6932;51.438;5.470;2024-03-06T07:10:05;11.10;99.90
13721;DHT22;6932;51.438;5.470;2024-03-06T07:12:31;11.20;99.90
13721;DHT22;6932;51.438;5.470;2024-03-06T07:14:58;11.30;99.90
13721;DHT22;6932;51.438;5.470;2024-03-06T07:17:24;11.40;99.90
13721;DHT22;6932;51.438;5.470;2024-03-06T07:19:50;11.50;99.90
13721;DHT22;6932;51.438;5.470;2024-03-06T07:22:18;11.50;99.90
13721;DHT22;6932;51.438;5.470;2024-03-06T07:24:44;11.70;99.90
13721;DHT22;6932;51.438;5.470;2024-03-06T07:27:10;11.80;99.90
13721;DHT22;6932;51.438;5.470;2024-03-06T07:29:36;11.90;99.90
13721;DHT22;6932;51.438;5.470;2024-03-06T07:32:03;11.90;99.90
13721;DHT22;6932;51.438;5.470;2024-03-06T07:34:31;12.10;99.90
13721;DHT22;6932;51.438;5.470;2024-03-06T07:36:57;12.10;99.90
13721;DHT22;6932;51.438;5.470;2024-03-06T07:39:27;12.20;99.90
13721;DHT22;6932;51.438;5.470;2024-03-06T07:41:53;12.20;99.90
13721;DHT22;6932;51.438;5.470;2024-03-06T07:44:19;12.20;99.90
13721;DHT22;6932;51.438;5.470;2024-03-06T07:46:45;12.30;99.90
13721;DHT22;6932;51.438;5.470;2024-03-06T07:49:11;12.30;99.90
13721;DHT22;6932;51.438;5.470;2024-03-06T07:51:37;12.30;99.90
13721;DHT22;6932;51.438;5.470;2024-03-06T07:54:03;12.40;99.90
13721;DHT22;6932;51.438;5.470;2024-03-06T07:56:32;12.50;99.90
13721;DHT22;6932;51.438;5.470;2024-03-06T07:58:59;12.60;99.90
13721;DHT22;6932;51.438;5.470;2024-03-06T08:01:26;12.70;99.90
13721;DHT22;6932;51.438;5.470;2024-03-06T08:03:54;12.80;99.90
13721;DHT22;6932;51.438;5.470;2024-03-06T08:06:20;12.80;99.90
13721;DHT22;6932;51.438;5.470;2024-03-06T08:08:46;12.90;99.90
13721;DHT22;6932;51.438;5.470;2024-03-06T08:11:15;12.90;99.90
13721;DHT22;6932;51.438;5.470;2024-03-06T08:13:41;13.00;99.90
13721;DHT22;6932;51.438;5.470;2024-03-06T08:16:07;13.10;99.90
13721;DHT22;6932;51.438;5.470;2024-03-06T08:18:34;13.30;99.90
13721;DHT22;6932;51.438;5.470;2024-03-06T08:21:01;13.40;99.90
13721;DHT22;6932;51.438;5.470;2024-03-06T08:23:28;13.60;99.90
13721;DHT22;6932;51.438;5.470;2024-03-06T08:25:54;13.70;99.90
13721;DHT22;6932;51.438;5.470;2024-03-06T08:28:20;14.00;99.90
13721;DHT22;6932;51.438;5.470;2024-03-06T08:30:46;14.10;99.90
13721;DHT22;6932;51.438;5.470;2024-03-06T08:33:12;14.30;99.90
13721;DHT22;6932;51.438;5.470;2024-03-06T08:35:38;14.50;99.90
13721;DHT22;6932;51.438;5.470;2024-03-06T08:38:04;14.70;99.90
13721;DHT22;6932;51.438;5.470;2024-03-06T08:40:32;14.80;99.90
13721;DHT22;6932;51.438;5.470;2024-03-06T08:42:57;14.90;99.90
13721;DHT22;6932;51.438;5.470;2024-03-06T08:45:24;15.00;99.90
13721;DHT22;6932;51.438;5.470;2024-03-06T08:47:50;15.00;99.90
13721;DHT22;6932;51.438;5.470;2024-03-06T08:50:17;15.10;99.90
13721;DHT22;6932;51.438;5.470;2024-03-06T08:52:43;15.10;99.90
13721;DHT22;6932;51.438;5.470;2024-03-06T08:55:09;15.20;99.90
13721;DHT22;6932;51.438;5.470;2024-03-06T08:57:36;15.30;99.90
13721;DHT22;6932;51.438;5.470;2024-03-06T09:00:03;15.30;99.90
13721;DHT22;6932;51.438;5.470;2024-03-06T09:02:30;15.40;99.90
13721;DHT22;6932;51.438;5.470;2024-03-06T09:04:56;15.60;99.90
13721;DHT22;6932;51.438;5.470;2024-03-06T09:07:22;15.70;99.90
13721;DHT22;6932;51.438;5.470;2024-03-06T09:09:49;15.80;99.90
13721;DHT22;6932;51.438;5.470;2024-03-06T09:12:17;15.90;99.90
13721;DHT22;6932;51.438;5.470;2024-03-06T09:14:43;16.00;99.90
13721;DHT22;6932;51.438;5.470;2024-03-06T09:17:10;16.00;99.80
13721;DHT22;6932;51.438;5.470;2024-03-06T09:19:39;16.10;99.40
13721;DHT22;6932;51.438;5.470;2024-03-06T09:22:06;16.00;99.60
13721;DHT22;6932;51.438;5.470;2024-03-06T09:24:32;16.00;99.30
13721;DHT22;6932;51.438;5.470;2024-03-06T09:27:01;16.00;99.30
13721;DHT22;6932;51.438;5.470;2024-03-06T09:29:26;15.90;99.20
13721;DHT22;6932;51.438;5.470;2024-03-06T09:31:52;15.80;98.90
13721;DHT22;6932;51.438;5.470;2024-03-06T09:34:18;15.70;99.10
13721;DHT22;6932;51.438;5.470;2024-03-06T09:36:48;15.60;99.10
13721;DHT22;6932;51.438;5.470;2024-03-06T09:39:15;15.50;99.40
13721;DHT22;6932;51.438;5.470;2024-03-06T09:41:46;15.50;99.70
13721;DHT22;6932;51.438;5.470;2024-03-06T09:44:14;15.50;99.70
13721;DHT22;6932;51.438;5.470;2024-03-06T09:46:44;15.50;99.70
13721;DHT22;6932;51.438;5.470;2024-03-06T09:49:12;15.50;99.80
13721;DHT22;6932;51.438;5.470;2024-03-06T09:51:48;15.60;99.70
13721;DHT22;6932;51.438;5.470;2024-03-06T09:54:19;15.70;99.70
13721;DHT22;6932;51.438;5.470;2024-03-06T09:56:46;15.80;99.80
13721;DHT22;6932;51.438;5.470;2024-03-06T09:59:13;15.80;99.70
13721;DHT22;6932;51.438;5.470;2024-03-06T10:01:56;16.00;99.50
13721;DHT22;6932;51.438;5.470;2024-03-06T10:04:27;16.10;99.30
13721;DHT22;6932;51.438;5.470;2024-03-06T10:06:58;16.10;99.30
13721;DHT22;6932;51.438;5.470;2024-03-06T10:09:25;16.20;99.10
13721;DHT22;6932;51.438;5.470;2024-03-06T10:11:52;16.30;98.80
13721;DHT22;6932;51.438;5.470;2024-03-06T10:14:19;16.30;98.90
13721;DHT22;6932;51.438;5.470;2024-03-06T10:16:55;16.30;98.80
13721;DHT22;6932;51.438;5.470;2024-03-06T10:19:23;16.40;98.90
13721;DHT22;6932;51.438;5.470;2024-03-06T10:21:56;16.40;98.60
13721;DHT22;6932;51.438;5.470;2024-03-06T10:24:29;16.50;98.70
13721;DHT22;6932;51.438;5.470;2024-03-06T10:26:56;16.60;98.90
13721;DHT22;6932;51.438;5.470;2024-03-06T10:29:25;16.60;98.70
13721;DHT22;6932;51.438;5.470;2024-03-06T10:31:53;16.80;98.70
13721;DHT22;6932;51.438;5.470;2024-03-06T10:34:28;16.90;98.90
13721;DHT22;6932;51.438;5.470;2024-03-06T10:37:02;17.00;98.10
13721;DHT22;6932;51.438;5.470;2024-03-06T10:39:36;17.10;97.90
13721;DHT22;6932;51.438;5.470;2024-03-06T10:42:07;17.20;98.00
13721;DHT22;6932;51.438;5.470;2024-03-06T10:44:34;17.40;98.00
13721;DHT22;6932;51.438;5.470;2024-03-06T10:47:04;17.50;97.80
13721;DHT22;6932;51.438;5.470;2024-03-06T10:49:32;17.70;97.40
13721;DHT22;6932;51.438;5.470;2024-03-06T10:52:04;17.80;97.10
13721;DHT22;6932;51.438;5.470;2024-03-06T10:54:32;18.00;96.50
13721;DHT22;6932;51.438;5.470;2024-03-06T10:57:00;18.20;96.50
13721;DHT22;6932;51.438;5.470;2024-03-06T10:59:28;18.30;96.10
13721;DHT22;6932;51.438;5.470;2024-03-06T11:01:58;18.40;95.70
13721;DHT22;6932;51.438;5.470;2024-03-06T11:04:27;18.50;95.30
13721;DHT22;6932;51.438;5.470;2024-03-06T11:06:57;18.50;95.10
13721;DHT22;6932;51.438;5.470;2024-03-06T11:09:28;18.50;94.70
13721;DHT22;6932;51.438;5.470;2024-03-06T11:11:57;18.40;94.70
13721;DHT22;6932;51.438;5.470;2024-03-06T11:14:24;18.30;94.90
13721;DHT22;6932;51.438;5.470;2024-03-06T11:28:26;17.70;95.10
13721;DHT22;6932;51.438;5.470;2024-03-06T11:31:09;17.60;94.60
13721;DHT22;6932;51.438;5.470;2024-03-06T11:33:45;17.50;94.90
13721;DHT22;6932;51.438;5.470;2024-03-06T11:44:13;17.40;94.70
13721;DHT22;6932;51.438;5.470;2024-03-06T11:46:48;17.40;94.20
13721;DHT22;6932;51.438;5.470;2024-03-06T11:49:16;17.50;94.20
13721;DHT22;6932;51.438;5.470;2024-03-06T11:52:01;17.50;93.90
13721;DHT22;6932;51.438;5.470;2024-03-06T11:54:31;17.50;93.60
13721;DHT22;6932;51.438;5.470;2024-03-06T11:57:00;17.50;93.10
13721;DHT22;6932;51.438;5.470;2024-03-06T11:59:35;17.50;93.10
13721;DHT22;6932;51.438;5.470;2024-03-06T12:02:04;17.40;92.80
13721;DHT22;6932;51.438;5.470;2024-03-06T12:04:32;17.30;92.70
13721;DHT22;6932;51.438;5.470;2024-03-06T12:07:03;17.20;92.60
13721;DHT22;6932;51.438;5.470;2024-03-06T12:09:32;17.10;92.90
13721;DHT22;6932;51.438;5.470;2024-03-06T12:11:58;17.00;92.90
13721;DHT22;6932;51.438;5.470;2024-03-06T12:14:25;17.00;93.00
13721;DHT22;6932;51.438;5.470;2024-03-06T12:16:59;16.90;93.20
13721;DHT22;6932;51.438;5.470;2024-03-06T12:19:32;16.80;93.60
13721;DHT22;6932;51.438;5.470;2024-03-06T12:22:04;16.80;93.40
13721;DHT22;6932;51.438;5.470;2024-03-06T12:24:30;16.80;93.20
13721;DHT22;6932;51.438;5.470;2024-03-06T12:27:00;16.80;93.00
13721;DHT22;6932;51.438;5.470;2024-03-06T12:29:29;16.80;93.20
13721;DHT22;6932;51.438;5.470;2024-03-06T12:31:56;16.80;93.00
13721;DHT22;6932;51.438;5.470;2024-03-06T12:34:22;16.70;93.00
13721;DHT22;6932;51.438;5.470;2024-03-06T12:36:48;16.70;93.00
13721;DHT22;6932;51.438;5.470;2024-03-06T12:39:15;16.60;93.20
13721;DHT22;6932;51.438;5.470;2024-03-06T12:41:46;16.60;93.30
13721;DHT22;6932;51.438;5.470;2024-03-06T12:44:13;16.60;93.60
13721;DHT22;6932;51.438;5.470;2024-03-06T12:46:40;16.60;93.80
13721;DHT22;6932;51.438;5.470;2024-03-06T12:49:06;16.70;93.60
13721;DHT22;6932;51.438;5.470;2024-03-06T12:51:32;16.80;93.60
13721;DHT22;6932;51.438;5.470;2024-03-06T12:53:58;16.90;93.30
13721;DHT22;6932;51.438;5.470;2024-03-06T12:56:24;16.90;93.30
13721;DHT22;6932;51.438;5.470;2024-03-06T12:58:53;17.00;93.40
13721;DHT22;6932;51.438;5.470;2024-03-06T13:01:19;17.10;93.30
13721;DHT22;6932;51.438;5.470;2024-03-06T13:03:45;17.20;93.10
13721;DHT22;6932;51.438;5.470;2024-03-06T13:06:12;17.20;92.90
13721;DHT22;6932;51.438;5.470;2024-03-06T13:08:37;17.30;92.60
13721;DHT22;6932;51.438;5.470;2024-03-06T13:11:03;17.30;92.60
13721;DHT22;6932;51.438;5.470;2024-03-06T13:13:29;17.20;92.60
13721;DHT22;6932;51.438;5.470;2024-03-06T13:15:58;17.20;92.70
13721;DHT22;6932;51.438;5.470;2024-03-06T13:18:24;17.20;92.50
13721;DHT22;6932;51.438;5.470;2024-03-06T13:20:51;17.20;92.30
13721;DHT22;6932;51.438;5.470;2024-03-06T13:23:17;17.20;92.40
13721;DHT22;6932;51.438;5.470;2024-03-06T13:25:43;17.30;92.20
13721;DHT22;6932;51.438;5.470;2024-03-06T13:28:11;17.30;91.80
13721;DHT22;6932;51.438;5.470;2024-03-06T13:30:38;17.30;91.60
13721;DHT22;6932;51.438;5.470;2024-03-06T13:33:04;17.30;91.40
13721;DHT22;6932;51.438;5.470;2024-03-06T13:35:31;17.30;91.30
13721;DHT22;6932;51.438;5.470;2024-03-06T13:37:56;17.30;90.70
13721;DHT22;6932;51.438;5.470;2024-03-06T13:40:23;17.30;90.80
13721;DHT22;6932;51.438;5.470;2024-03-06T13:42:49;17.20;91.10
13721;DHT22;6932;51.438;5.470;2024-03-06T13:45:14;17.20;91.40
13721;DHT22;6932;51.438;5.470;2024-03-06T13:47:42;17.20;91.40
13721;DHT22;6932;51.438;5.470;2024-03-06T13:50:14;17.20;91.30
13721;DHT22;6932;51.438;5.470;2024-03-06T13:52:41;17.20;91.30
13721;DHT22;6932;51.438;5.470;2024-03-06T13:55:08;17.30;91.20
13721;DHT22;6932;51.438;5.470;2024-03-06T13:57:36;17.30;90.80
13721;DHT22;6932;51.438;5.470;2024-03-06T14:00:04;17.20;90.70
13721;DHT22;6932;51.438;5.470;2024-03-06T14:02:43;17.20;90.50
13721;DHT22;6932;51.438;5.470;2024-03-06T14:05:11;17.20;90.50
13721;DHT22;6932;51.438;5.470;2024-03-06T14:07:38;17.10;90.30
13721;DHT22;6932;51.438;5.470;2024-03-06T14:10:06;17.10;89.80
13721;DHT22;6932;51.438;5.470;2024-03-06T14:12:34;17.00;89.00
13721;DHT22;6932;51.438;5.470;2024-03-06T14:15:04;16.90;89.20
13721;DHT22;6932;51.438;5.470;2024-03-06T14:17:34;16.90;88.20
13721;DHT22;6932;51.438;5.470;2024-03-06T14:20:00;16.80;89.10
13721;DHT22;6932;51.438;5.470;2024-03-06T14:22:25;16.80;88.70
13721;DHT22;6932;51.438;5.470;2024-03-06T14:24:51;16.80;89.20
13721;DHT22;6932;51.438;5.470;2024-03-06T14:27:17;16.70;89.60
13721;DHT22;6932;51.438;5.470;2024-03-06T14:29:43;16.70;90.00
13721;DHT22;6932;51.438;5.470;2024-03-06T14:32:08;16.70;89.30
13721;DHT22;6932;51.438;5.470;2024-03-06T14:34:34;16.70;88.70
13721;DHT22;6932;51.438;5.470;2024-03-06T14:37:00;16.70;89.30
13721;DHT22;6932;51.438;5.470;2024-03-06T14:39:26;16.70;90.00
13721;DHT22;6932;51.438;5.470;2024-03-06T14:41:52;16.70;90.10
13721;DHT22;6932;51.438;5.470;2024-03-06T14:44:18;16.70;89.90
13721;DHT22;6932;51.438;5.470;2024-03-06T14:46:44;16.70;90.30
13721;DHT22;6932;51.438;5.470;2024-03-06T14:49:12;16.70;90.30
13721;DHT22;6932;51.438;5.470;2024-03-06T14:51:37;16.70;90.30
13721;DHT22;6932;51.438;5.470;2024-03-06T14:54:03;16.70;90.40
13721;DHT22;6932;51.438;5.470;2024-03-06T14:56:29;16.70;90.20
13721;DHT22;6932;51.438;5.470;2024-03-06T14:58:56;16.70;90.20
13721;DHT22;6932;51.438;5.470;2024-03-06T15:01:23;16.70;90.20
13721;DHT22;6932;51.438;5.470;2024-03-06T15:03:51;16.70;89.80
13721;DHT22;6932;51.438;5.470;2024-03-06T15:06:17;16.70;88.80
13721;DHT22;6932;51.438;5.470;2024-03-06T15:08:43;16.70;88.30
13721;DHT22;6932;51.438;5.470;2024-03-06T15:11:10;16.70;88.30
13721;DHT22;6932;51.438;5.470;2024-03-06T15:13:36;16.70;88.00
13721;DHT22;6932;51.438;5.470;2024-03-06T15:16:03;16.70;88.10
13721;DHT22;6932;51.438;5.470;2024-03-06T15:18:34;16.70;88.10
13721;DHT22;6932;51.438;5.470;2024-03-06T15:20:59;16.70;88.60
13721;DHT22;6932;51.438;5.470;2024-03-06T15:23:25;16.60;88.60
13721;DHT22;6932;51.438;5.470;2024-03-06T15:25:51;16.60;88.40
13721;DHT22;6932;51.438;5.470;2024-03-06T15:28:17;16.60;88.80
13721;DHT22;6932;51.438;5.470;2024-03-06T15:30:43;16.60;89.00
13721;DHT22;6932;51.438;5.470;2024-03-06T15:33:08;16.60;89.20
13721;DHT22;6932;51.438;5.470;2024-03-06T15:35:34;16.60;89.10
13721;DHT22;6932;51.438;5.470;2024-03-06T15:38:00;16.60;89.10
13721;DHT22;6932;51.438;5.470;2024-03-06T15:40:26;16.60;89.10
13721;DHT22;6932;51.438;5.470;2024-03-06T15:42:52;16.60;89.20
13721;DHT22;6932;51.438;5.470;2024-03-06T15:45:19;16.60;89.10
13721;DHT22;6932;51.438;5.470;2024-03-06T15:47:45;16.60;89.00
13721;DHT22;6932;51.438;5.470;2024-03-06T15:50:11;16.60;89.10
13721;DHT22;6932;51.438;5.470;2024-03-06T15:52:38;16.60;89.20
13721;DHT22;6932;51.438;5.470;2024-03-06T15:55:07;16.60;89.50
13721;DHT22;6932;51.438;5.470;2024-03-06T15:57:34;16.50;89.90
13721;DHT22;6932;51.438;5.470;2024-03-06T16:00:02;16.50;90.20
13721;DHT22;6932;51.438;5.470;2024-03-06T16:02:31;16.50;90.30
13721;DHT22;6932;51.438;5.470;2024-03-06T16:04:57;16.50;90.40